NOZ173 ENZV-ENBR
Flight info
| Callsign | NOZ173 |
|---|---|
| Flight time | 0h 23m |
| Altitude | 16000 |
| Route | ALUVA |
| Aircraft | B38M/M-SDE1FGHILORVWXY/HB1 |
Departure
| Time | 2026-04-30 10:53 |
|---|---|
| Airport | Stavanger Airport, Sola (ENZV) |
Arrival
| Time | 2026-04-30 11:17 |
|---|---|
| Airport | Bergen Airport, Flesland (ENBR) |
| Time | Latitude | Longitude | Altitude | Speed | Heading |
|---|---|---|---|---|---|
| 2026-04-30 10:41 | 58.88126 | 5.63027 | 28 ft | 0 kts | 315° |
| 2026-04-30 10:47 | 58.88124 | 5.63031 | 27 ft | 3 kts | 315° |
| 2026-04-30 10:47 | 58.88111 | 5.63058 | 27 ft | 3 kts | 315° |
| 2026-04-30 10:47 | 58.88099 | 5.63081 | 28 ft | 2 kts | 315° |
| 2026-04-30 10:48 | 58.88088 | 5.63101 | 29 ft | 2 kts | 315° |
| 2026-04-30 10:48 | 58.88078 | 5.63119 | 29 ft | 0 kts | 315° |
| 2026-04-30 10:48 | 58.88079 | 5.63118 | 29 ft | 1 kts | 315° |
| 2026-04-30 10:50 | 58.88081 | 5.63083 | 28 ft | 7 kts | 252° |
| 2026-04-30 10:50 | 58.88014 | 5.63077 | 30 ft | 15 kts | 135° |
| 2026-04-30 10:50 | 58.87964 | 5.63290 | 32 ft | 17 kts | 114° |
| 2026-04-30 10:50 | 58.87876 | 5.63320 | 34 ft | 15 kts | 203° |
| 2026-04-30 10:51 | 58.87756 | 5.63295 | 34 ft | 22 kts | 179° |
| 2026-04-30 10:51 | 58.87567 | 5.63307 | 33 ft | 32 kts | 174° |
| 2026-04-30 10:51 | 58.87339 | 5.63319 | 34 ft | 29 kts | 182° |
| 2026-04-30 10:51 | 58.87154 | 5.63309 | 34 ft | 21 kts | 180° |
| 2026-04-30 10:52 | 58.87019 | 5.63348 | 35 ft | 20 kts | 144° |
| 2026-04-30 10:52 | 58.86959 | 5.63583 | 37 ft | 20 kts | 93° |
| 2026-04-30 10:52 | 58.86989 | 5.63792 | 38 ft | 10 kts | 28° |
| 2026-04-30 10:52 | 58.87054 | 5.63799 | 38 ft | 21 kts | 358° |
| 2026-04-30 10:53 | 58.87505 | 5.63782 | 36 ft | 106 kts | 359° |
| 2026-04-30 10:53 | 58.88488 | 5.63751 | 58 ft | 172 kts | 359° |
| 2026-04-30 10:53 | 58.89730 | 5.63702 | 641 ft | 183 kts | 357° |
| 2026-04-30 10:53 | 58.91010 | 5.63616 | 1560 ft | 182 kts | 355° |
| 2026-04-30 10:54 | 58.92263 | 5.63552 | 2425 ft | 182 kts | 356° |
| 2026-04-30 10:54 | 58.93583 | 5.63489 | 2946 ft | 199 kts | 357° |
| 2026-04-30 10:54 | 58.95014 | 5.63182 | 3443 ft | 216 kts | 348° |
| 2026-04-30 10:54 | 58.96524 | 5.62638 | 4082 ft | 226 kts | 348° |
| 2026-04-30 10:55 | 58.98128 | 5.62120 | 4582 ft | 245 kts | 347° |
| 2026-04-30 10:55 | 58.99834 | 5.61353 | 5168 ft | 254 kts | 345° |
| 2026-04-30 10:55 | 59.01606 | 5.60569 | 5677 ft | 270 kts | 345° |
| 2026-04-30 10:55 | 59.03491 | 5.59786 | 6169 ft | 281 kts | 346° |
| 2026-04-30 10:56 | 59.05408 | 5.59015 | 6882 ft | 284 kts | 345° |
| 2026-04-30 10:56 | 59.07366 | 5.58245 | 7477 ft | 288 kts | 346° |
| 2026-04-30 10:56 | 59.09340 | 5.57480 | 8128 ft | 291 kts | 346° |
| 2026-04-30 10:56 | 59.11331 | 5.56712 | 8772 ft | 293 kts | 347° |
| 2026-04-30 10:57 | 59.13340 | 5.55940 | 9402 ft | 295 kts | 347° |
| 2026-04-30 10:57 | 59.15360 | 5.55163 | 10015 ft | 297 kts | 347° |
| 2026-04-30 10:57 | 59.17397 | 5.54379 | 10591 ft | 300 kts | 348° |
| 2026-04-30 10:57 | 59.19486 | 5.53573 | 10813 ft | 314 kts | 348° |
| 2026-04-30 10:58 | 59.21694 | 5.52719 | 10863 ft | 332 kts | 347° |
| 2026-04-30 10:58 | 59.24014 | 5.51825 | 10886 ft | 347 kts | 347° |
| 2026-04-30 10:58 | 59.26426 | 5.50893 | 10902 ft | 359 kts | 347° |
| 2026-04-30 10:58 | 59.28915 | 5.49929 | 10924 ft | 369 kts | 347° |
| 2026-04-30 10:59 | 59.31425 | 5.48956 | 10956 ft | 377 kts | 347° |
| 2026-04-30 10:59 | 59.34011 | 5.47955 | 11086 ft | 379 kts | 347° |
| 2026-04-30 10:59 | 59.36560 | 5.46985 | 11713 ft | 366 kts | 348° |
| 2026-04-30 10:59 | 59.39024 | 5.46050 | 12375 ft | 356 kts | 348° |
| 2026-04-30 11:00 | 59.41465 | 5.45115 | 12614 ft | 361 kts | 347° |
| 2026-04-30 11:00 | 59.43972 | 5.44145 | 12452 ft | 375 kts | 347° |
| 2026-04-30 11:00 | 59.46569 | 5.43126 | 12338 ft | 385 kts | 347° |
| 2026-04-30 11:00 | 59.49188 | 5.42082 | 12614 ft | 381 kts | 347° |
| 2026-04-30 11:01 | 59.51756 | 5.41061 | 13183 ft | 371 kts | 347° |
| 2026-04-30 11:01 | 59.54268 | 5.40060 | 13600 ft | 367 kts | 347° |
| 2026-04-30 11:01 | 59.56788 | 5.39042 | 13649 ft | 374 kts | 346° |
| 2026-04-30 11:01 | 59.59373 | 5.37980 | 13484 ft | 384 kts | 346° |
| 2026-04-30 11:02 | 59.62007 | 5.36882 | 13460 ft | 389 kts | 347° |
| 2026-04-30 11:02 | 59.64677 | 5.35873 | 13386 ft | 390 kts | 347° |
| 2026-04-30 11:02 | 59.67321 | 5.34857 | 13329 ft | 384 kts | 347° |
| 2026-04-30 11:02 | 59.69942 | 5.33829 | 13270 ft | 385 kts | 347° |
| 2026-04-30 11:03 | 59.72568 | 5.32789 | 13183 ft | 385 kts | 347° |
| 2026-04-30 11:03 | 59.75195 | 5.31745 | 13078 ft | 384 kts | 347° |
| 2026-04-30 11:03 | 59.77810 | 5.30703 | 12967 ft | 384 kts | 347° |
| 2026-04-30 11:04 | 59.83026 | 5.28617 | 12770 ft | 381 kts | 346° |
| 2026-04-30 11:04 | 59.85622 | 5.27577 | 12661 ft | 380 kts | 346° |
| 2026-04-30 11:04 | 59.88218 | 5.26535 | 12566 ft | 381 kts | 346° |
| 2026-04-30 11:04 | 59.90825 | 5.25488 | 12484 ft | 383 kts | 346° |
| 2026-04-30 11:05 | 59.93440 | 5.24435 | 12421 ft | 384 kts | 346° |
| 2026-04-30 11:05 | 59.96022 | 5.23395 | 12221 ft | 366 kts | 346° |
| 2026-04-30 11:05 | 59.98435 | 5.22420 | 11832 ft | 343 kts | 346° |
| 2026-04-30 11:05 | 60.00723 | 5.21495 | 11349 ft | 329 kts | 346° |
| 2026-04-30 11:06 | 60.02944 | 5.20595 | 10940 ft | 324 kts | 346° |
| 2026-04-30 11:06 | 60.05148 | 5.19701 | 10548 ft | 322 kts | 346° |
| 2026-04-30 11:06 | 60.07336 | 5.18812 | 10141 ft | 320 kts | 346° |
| 2026-04-30 11:06 | 60.09506 | 5.17928 | 9713 ft | 317 kts | 345° |
| 2026-04-30 11:07 | 60.11661 | 5.17052 | 9288 ft | 315 kts | 345° |
| 2026-04-30 11:07 | 60.13800 | 5.16180 | 8877 ft | 313 kts | 345° |
| 2026-04-30 11:07 | 60.15925 | 5.15312 | 8462 ft | 311 kts | 345° |
| 2026-04-30 11:07 | 60.18038 | 5.14448 | 8056 ft | 309 kts | 345° |
| 2026-04-30 11:08 | 60.20111 | 5.13599 | 7654 ft | 307 kts | 345° |
| 2026-04-30 11:08 | 60.22200 | 5.12743 | 7255 ft | 305 kts | 345° |
| 2026-04-30 11:08 | 60.24272 | 5.11891 | 6864 ft | 303 kts | 345° |
| 2026-04-30 11:08 | 60.26333 | 5.11048 | 6447 ft | 302 kts | 345° |
| 2026-04-30 11:09 | 60.28383 | 5.10205 | 6034 ft | 300 kts | 345° |
| 2026-04-30 11:09 | 60.30392 | 5.09378 | 5658 ft | 287 kts | 346° |
| 2026-04-30 11:09 | 60.32312 | 5.08586 | 5330 ft | 278 kts | 346° |
| 2026-04-30 11:09 | 60.34199 | 5.07807 | 4983 ft | 276 kts | 346° |
| 2026-04-30 11:10 | 60.36080 | 5.07028 | 4655 ft | 275 kts | 346° |
| 2026-04-30 11:10 | 60.37952 | 5.06253 | 4346 ft | 274 kts | 347° |
| 2026-04-30 11:10 | 60.39817 | 5.05479 | 4035 ft | 273 kts | 347° |
| 2026-04-30 11:10 | 60.41634 | 5.04725 | 3723 ft | 260 kts | 347° |
| 2026-04-30 11:11 | 60.43361 | 5.04008 | 3394 ft | 247 kts | 347° |
| 2026-04-30 11:11 | 60.45010 | 5.03806 | 3156 ft | 229 kts | 13° |
| 2026-04-30 11:11 | 60.46356 | 5.05123 | 3115 ft | 209 kts | 43° |
| 2026-04-30 11:11 | 60.47195 | 5.07416 | 3038 ft | 199 kts | 70° |
| 2026-04-30 11:12 | 60.47467 | 5.10083 | 2986 ft | 190 kts | 93° |
| 2026-04-30 11:12 | 60.47367 | 5.12712 | 3008 ft | 183 kts | 103° |
| 2026-04-30 11:12 | 60.46808 | 5.14920 | 2937 ft | 174 kts | 141° |
| 2026-04-30 11:12 | 60.45761 | 5.16010 | 2980 ft | 170 kts | 165° |
| 2026-04-30 11:13 | 60.44604 | 5.16602 | 2975 ft | 175 kts | 169° |
| 2026-04-30 11:13 | 60.43402 | 5.17066 | 2749 ft | 171 kts | 171° |
| 2026-04-30 11:13 | 60.42253 | 5.17458 | 2566 ft | 166 kts | 172° |
| 2026-04-30 11:13 | 60.41117 | 5.17834 | 2323 ft | 164 kts | 171° |
| 2026-04-30 11:14 | 60.40003 | 5.18217 | 2141 ft | 164 kts | 172° |
| 2026-04-30 11:14 | 60.38872 | 5.18600 | 1923 ft | 165 kts | 172° |
| 2026-04-30 11:14 | 60.37721 | 5.18988 | 1701 ft | 170 kts | 171° |
| 2026-04-30 11:14 | 60.36587 | 5.19374 | 1533 ft | 160 kts | 171° |
| 2026-04-30 11:15 | 60.35510 | 5.19736 | 1290 ft | 155 kts | 171° |
| 2026-04-30 11:15 | 60.34464 | 5.20089 | 1048 ft | 149 kts | 171° |
| 2026-04-30 11:15 | 60.33457 | 5.20427 | 846 ft | 146 kts | 171° |
| 2026-04-30 11:15 | 60.32450 | 5.20764 | 630 ft | 146 kts | 171° |
| 2026-04-30 11:16 | 60.31456 | 5.21111 | 431 ft | 144 kts | 170° |
| 2026-04-30 11:16 | 60.30477 | 5.21445 | 240 ft | 141 kts | 171° |
| 2026-04-30 11:16 | 60.29575 | 5.21745 | 176 ft | 118 kts | 171° |
| 2026-04-30 11:16 | 60.28984 | 5.21937 | 177 ft | 61 kts | 171° |
| 2026-04-30 11:17 | 60.28713 | 5.22031 | 177 ft | 13 kts | 162° |
| 2026-04-30 11:17 | 60.28663 | 5.22122 | 177 ft | 16 kts | 104° |
| 2026-04-30 11:17 | 60.28704 | 5.22514 | 176 ft | 27 kts | 73° |
| 2026-04-30 11:17 | 60.28730 | 5.22840 | 176 ft | 14 kts | 81° |
| 2026-04-30 11:18 | 60.28734 | 5.22893 | 176 ft | 0 kts | 81° |